createdAt,value
2023-03-05T00:02:28.867Z,0.80
2023-03-05T00:04:56.785Z,0.40
2023-03-05T00:07:24.484Z,0.90
2023-03-05T00:09:52.177Z,0.50
2023-03-05T00:12:19.885Z,0.50
2023-03-05T00:14:47.584Z,0.70
2023-03-05T00:17:15.269Z,0.60
2023-03-05T00:19:44.356Z,0.43
2023-03-05T00:22:12.054Z,0.50
2023-03-05T00:24:39.820Z,0.60
2023-03-05T00:27:07.621Z,0.70
2023-03-05T00:29:35.352Z,0.60
2023-03-05T00:32:03.174Z,0.50
2023-03-05T00:34:31.559Z,1.00
2023-03-05T00:37:00.608Z,0.30
2023-03-05T00:39:28.978Z,0.60
2023-03-05T00:41:58.218Z,0.50
2023-03-05T00:44:26.012Z,0.40
2023-03-05T00:46:53.781Z,0.70
2023-03-05T00:49:21.620Z,0.40
2023-03-05T00:51:49.359Z,0.50
2023-03-05T00:54:18.601Z,0.50
2023-03-05T00:56:47.330Z,0.83
2023-03-05T00:59:15.067Z,0.57
2023-03-05T01:01:42.802Z,0.40
2023-03-05T01:04:10.681Z,0.90
2023-03-05T01:06:42.566Z,0.50
2023-03-05T01:09:10.286Z,0.40
2023-03-05T01:11:39.368Z,0.83
2023-03-05T01:14:07.079Z,0.67
2023-03-05T01:16:34.776Z,0.60
2023-03-05T01:19:02.497Z,0.80
2023-03-05T01:21:30.234Z,0.60
2023-03-05T01:23:58.791Z,0.50
2023-03-05T01:26:26.513Z,0.50
2023-03-05T01:28:55.575Z,0.70
2023-03-05T01:31:23.470Z,0.83
2023-03-05T01:33:52.996Z,0.90
2023-03-05T01:36:21.538Z,0.73
2023-03-05T01:38:49.586Z,0.40
2023-03-05T01:41:18.370Z,0.73
2023-03-05T01:43:47.836Z,0.50
2023-03-05T01:46:38.373Z,0.60
2023-03-05T01:49:21.462Z,0.50
2023-03-05T01:51:58.730Z,0.40
2023-03-05T01:54:31.473Z,0.80
2023-03-05T01:57:02.884Z,1.50
2023-03-05T01:59:31.945Z,0.63
2023-03-05T02:02:01.479Z,0.60
2023-03-05T02:04:34.940Z,0.50
2023-03-05T02:07:02.933Z,0.67
2023-03-05T02:09:30.734Z,0.40
2023-03-05T02:11:58.833Z,0.70
2023-03-05T02:14:27.766Z,0.70
2023-03-05T02:16:55.606Z,0.40
2023-03-05T02:19:24.749Z,0.57
2023-03-05T02:21:53.812Z,0.50
2023-03-05T02:24:35.926Z,0.40
2023-03-05T02:27:04.858Z,0.90
2023-03-05T02:29:34.423Z,0.43
2023-03-05T02:32:02.603Z,0.50
2023-03-05T02:34:30.946Z,0.50
2023-03-05T02:37:00.097Z,1.00
2023-03-05T02:39:27.999Z,1.13
2023-03-05T02:41:55.692Z,0.50
2023-03-05T02:44:23.845Z,0.83
2023-03-05T02:46:51.567Z,0.47
2023-03-05T02:49:19.467Z,0.70
2023-03-05T02:51:47.285Z,0.50
2023-03-05T02:54:16.646Z,0.80
2023-03-05T02:56:44.423Z,0.50
2023-03-05T02:59:12.266Z,0.40
2023-03-05T03:01:40.558Z,1.07
2023-03-05T03:04:08.289Z,0.87
2023-03-05T03:06:35.960Z,0.40
2023-03-05T03:09:03.677Z,0.53
2023-03-05T03:11:32.793Z,0.60
2023-03-05T03:14:00.727Z,0.50
2023-03-05T03:16:28.519Z,0.63
2023-03-05T03:18:56.220Z,0.50
2023-03-05T03:21:26.803Z,0.70
2023-03-05T03:23:54.613Z,0.40
2023-03-05T03:26:22.478Z,0.70
2023-03-05T03:28:51.752Z,0.40
2023-03-05T03:31:19.564Z,1.00
2023-03-05T03:33:47.321Z,0.50
2023-03-05T03:36:15.035Z,0.40
2023-03-05T03:38:43.081Z,0.40
2023-03-05T03:41:10.824Z,0.40
2023-03-05T03:43:39.078Z,0.70
2023-03-05T03:46:08.684Z,0.70
2023-03-05T03:48:36.841Z,0.77
2023-03-05T03:51:08.859Z,0.70
2023-03-05T03:53:36.839Z,0.60
2023-03-05T03:56:05.195Z,0.50
2023-03-05T03:58:33.287Z,0.60
2023-03-05T04:01:01.356Z,0.40
2023-03-05T04:03:30.446Z,0.40
2023-03-05T04:05:58.129Z,0.60
2023-03-05T04:08:25.954Z,0.97
2023-03-05T04:10:53.681Z,0.90
2023-03-05T04:13:21.383Z,0.50
2023-03-05T04:15:50.175Z,0.40
2023-03-05T04:18:17.932Z,0.40
2023-03-05T04:20:46.951Z,0.67
2023-03-05T04:23:14.756Z,0.40
2023-03-05T04:25:42.456Z,0.40
2023-03-05T04:28:12.611Z,0.87
2023-03-05T04:30:40.386Z,0.50
2023-03-05T04:33:08.125Z,0.40
2023-03-05T04:35:36.148Z,0.33
2023-03-05T04:38:05.325Z,0.60
2023-03-05T04:40:33.083Z,0.50
2023-03-05T04:43:00.815Z,0.53
2023-03-05T04:45:28.703Z,1.07
2023-03-05T04:47:56.500Z,0.70
2023-03-05T04:50:24.185Z,0.70
2023-03-05T04:52:51.901Z,0.47
2023-03-05T04:55:20.972Z,0.70
2023-03-05T04:57:48.668Z,0.50
2023-03-05T05:00:18.289Z,0.50
2023-03-05T05:02:47.757Z,0.40
2023-03-05T05:05:17.436Z,0.60
2023-03-05T05:07:45.191Z,0.40
2023-03-05T05:10:15.031Z,0.50
2023-03-05T05:12:44.201Z,0.40
2023-03-05T05:15:13.375Z,0.50
2023-03-05T05:17:41.369Z,0.47
2023-03-05T05:20:11.406Z,0.43
2023-03-05T05:22:39.127Z,0.40
2023-03-05T05:25:07.232Z,0.57
2023-03-05T05:27:35.344Z,0.73
2023-03-05T05:30:05.522Z,0.60
2023-03-05T05:32:33.363Z,0.50
2023-03-05T05:35:01.270Z,0.80
2023-03-05T05:37:30.208Z,0.70
2023-03-05T05:39:57.972Z,1.03
2023-03-05T05:42:26.366Z,0.40
2023-03-05T05:44:55.379Z,0.70
2023-03-05T05:47:24.664Z,0.90
2023-03-05T05:49:52.627Z,0.87
2023-03-05T05:52:20.334Z,0.50
2023-03-05T05:54:48.192Z,0.53
2023-03-05T05:57:16.290Z,0.50
2023-03-05T05:59:43.998Z,0.60
2023-03-05T06:02:11.935Z,0.40
2023-03-05T06:04:41.040Z,0.70
2023-03-05T06:07:09.392Z,0.43
2023-03-05T06:09:37.462Z,0.70
2023-03-05T06:12:06.105Z,0.50
2023-03-05T06:14:33.827Z,0.40
2023-03-05T06:17:01.688Z,1.13
2023-03-05T06:19:29.917Z,0.57
2023-03-05T06:21:58.946Z,0.93
2023-03-05T06:24:26.727Z,1.20
2023-03-05T06:26:54.442Z,0.40
2023-03-05T06:29:22.156Z,0.60
2023-03-05T06:31:50.078Z,0.40
2023-03-05T06:34:17.976Z,0.67
2023-03-05T06:36:45.806Z,0.47
2023-03-05T06:39:14.878Z,1.77
2023-03-05T06:41:42.678Z,0.80
2023-03-05T06:44:10.996Z,0.80
2023-03-05T06:46:40.012Z,0.77
2023-03-05T06:49:09.344Z,1.07
2023-03-05T06:51:38.991Z,1.70
2023-03-05T06:54:08.560Z,2.03
2023-03-05T06:56:39.309Z,2.77
2023-03-05T06:59:07.557Z,2.80
2023-03-05T07:01:35.644Z,2.23
2023-03-05T07:04:04.278Z,1.57
2023-03-05T07:06:34.616Z,1.23
2023-03-05T07:09:02.984Z,2.00
2023-03-05T07:11:31.227Z,2.83
2023-03-05T07:14:00.736Z,0.93
2023-03-05T07:16:30.406Z,1.97
2023-03-05T07:18:59.953Z,10.33
2023-03-05T07:21:32.396Z,4.10
2023-03-05T07:24:02.000Z,5.13
2023-03-05T07:26:30.763Z,5.20
2023-03-05T07:29:00.120Z,4.90
2023-03-05T07:31:30.860Z,3.27
2023-03-05T07:34:00.125Z,5.30
2023-03-05T07:36:27.894Z,2.53
2023-03-05T07:38:55.648Z,5.93
2023-03-05T07:41:24.212Z,4.10
2023-03-05T07:43:53.654Z,3.10
2023-03-05T07:46:24.765Z,4.27
2023-03-05T07:48:54.463Z,2.83
2023-03-05T07:51:22.941Z,2.97
2023-03-05T07:53:52.363Z,3.40
2023-03-05T07:56:24.049Z,3.03
2023-03-05T07:58:51.930Z,5.57
2023-03-05T08:01:19.912Z,2.50
2023-03-05T08:03:49.003Z,5.37
2023-03-05T08:06:16.784Z,3.63
2023-03-05T08:08:44.600Z,3.10
2023-03-05T08:11:14.176Z,2.30
2023-03-05T08:13:42.306Z,1.23
2023-03-05T08:16:12.765Z,1.50
2023-03-05T08:18:40.721Z,4.17
2023-03-05T08:21:16.995Z,4.27
2023-03-05T08:23:44.769Z,3.00
2023-03-05T08:26:14.199Z,1.60
2023-03-05T08:28:42.029Z,2.30
2023-03-05T08:31:10.927Z,2.00
2023-03-05T08:33:39.169Z,1.90
2023-03-05T08:36:09.712Z,1.67
2023-03-05T08:38:37.592Z,1.90
2023-03-05T08:41:05.860Z,2.50
2023-03-05T08:43:33.584Z,4.57
2023-03-05T08:46:02.178Z,2.10
2023-03-05T08:48:31.550Z,1.60
2023-03-05T08:50:59.563Z,2.30
2023-03-05T08:53:28.617Z,1.77
2023-03-05T08:55:57.693Z,2.03
2023-03-05T08:58:26.243Z,2.00
2023-03-05T09:00:54.099Z,1.30
2023-03-05T09:03:21.772Z,1.27
2023-03-05T09:05:49.611Z,1.77
2023-03-05T09:08:17.293Z,1.53
2023-03-05T09:10:47.263Z,0.93
2023-03-05T09:13:15.043Z,3.90
2023-03-05T09:15:42.813Z,3.17
2023-03-05T09:18:10.514Z,4.67
2023-03-05T09:20:38.671Z,2.80
2023-03-05T09:23:06.392Z,2.50
2023-03-05T09:25:34.098Z,3.80
2023-03-05T09:28:03.132Z,1.40
2023-03-05T09:30:30.866Z,3.63
2023-03-05T09:32:58.546Z,2.37
2023-03-05T09:35:26.258Z,2.20
2023-03-05T09:37:54.009Z,3.40
2023-03-05T09:40:22.819Z,2.20
2023-03-05T09:43:06.333Z,2.00
2023-03-05T09:45:39.178Z,4.60
2023-03-05T09:48:15.320Z,6.60
2023-03-05T09:50:45.585Z,5.20
2023-03-05T09:53:21.396Z,7.57
2023-03-05T09:55:52.514Z,3.50
2023-03-05T09:58:31.878Z,4.73
2023-03-05T10:01:02.446Z,5.60
2023-03-05T10:03:45.266Z,6.10
2023-03-05T10:06:20.842Z,6.60
2023-03-05T10:08:55.875Z,3.80
2023-03-05T10:11:34.830Z,5.10
2023-03-05T10:14:04.347Z,4.47
2023-03-05T10:16:58.097Z,4.10
2023-03-05T10:19:42.601Z,1.97
2023-03-05T10:22:19.022Z,4.93
2023-03-05T10:25:00.133Z,3.43
2023-03-05T10:27:39.746Z,5.20
2023-03-05T10:30:32.403Z,5.63
2023-03-05T10:33:13.068Z,6.80
2023-03-05T10:36:11.197Z,3.23
2023-03-05T10:38:56.762Z,4.00
2023-03-05T10:41:34.122Z,5.23
2023-03-05T10:44:10.234Z,3.80
2023-03-05T10:46:40.715Z,1.27
2023-03-05T10:49:18.147Z,2.83
2023-03-05T10:51:52.679Z,4.07
2023-03-05T10:54:26.288Z,3.07
2023-03-05T10:57:05.037Z,4.40
2023-03-05T10:59:33.571Z,5.43
2023-03-05T11:02:09.534Z,3.67
2023-03-05T11:04:39.776Z,3.10
2023-03-05T11:07:09.569Z,2.40
2023-03-05T11:09:37.252Z,2.20
2023-03-05T11:12:17.185Z,2.33
2023-03-05T11:14:47.505Z,3.80
2023-03-05T11:17:29.866Z,4.47
2023-03-05T11:19:58.580Z,3.00
2023-03-05T11:22:26.866Z,2.17
2023-03-05T11:25:14.763Z,3.27
2023-03-05T11:27:51.040Z,0.93
2023-03-05T11:30:22.430Z,2.00
2023-03-05T11:32:51.545Z,4.00
2023-03-05T11:35:33.303Z,2.63
2023-03-05T11:38:02.312Z,1.87
2023-03-05T11:40:31.851Z,1.37
2023-03-05T11:43:02.645Z,3.40
2023-03-05T11:45:32.650Z,1.67
2023-03-05T11:48:08.970Z,1.83
2023-03-05T11:50:41.765Z,3.73
2023-03-05T11:53:15.536Z,3.40
2023-03-05T11:55:46.039Z,0.87
2023-03-05T11:58:33.239Z,0.90
2023-03-05T12:01:02.142Z,1.00
2023-03-05T12:03:34.470Z,2.03
2023-03-05T12:06:10.725Z,1.43
2023-03-05T12:08:41.882Z,3.73
2023-03-05T12:11:21.554Z,1.67
2023-03-05T12:13:52.458Z,1.40
2023-03-05T12:16:34.367Z,0.90
2023-03-05T12:19:35.556Z,3.67
2023-03-05T12:22:04.649Z,1.73
2023-03-05T12:24:38.638Z,3.90
2023-03-05T12:27:15.774Z,3.60
2023-03-05T12:29:49.361Z,4.50
2023-03-05T12:33:02.619Z,2.23
2023-03-05T12:35:36.976Z,2.10
2023-03-05T12:38:32.248Z,1.37
2023-03-05T12:41:44.769Z,1.57
2023-03-05T12:44:23.569Z,4.30
2023-03-05T12:47:23.270Z,1.90
2023-03-05T12:49:51.333Z,2.10
2023-03-05T12:52:26.856Z,0.80
2023-03-05T12:55:04.577Z,1.47
2023-03-05T12:57:32.930Z,0.70
2023-03-05T13:00:05.948Z,1.17
2023-03-05T13:02:37.577Z,1.53
2023-03-05T13:05:18.044Z,0.93
2023-03-05T13:07:47.085Z,0.97
2023-03-05T13:10:23.628Z,0.40
2023-03-05T13:12:53.518Z,0.93
2023-03-05T13:15:23.489Z,0.70
2023-03-05T13:17:57.282Z,0.97
2023-03-05T13:20:33.801Z,0.93
2023-03-05T13:23:18.128Z,2.33
2023-03-05T13:25:56.463Z,1.17
2023-03-05T13:28:24.652Z,1.17
2023-03-05T13:30:53.907Z,1.07
2023-03-05T13:33:25.871Z,1.60
2023-03-05T13:35:54.226Z,1.03
2023-03-05T13:38:32.657Z,0.83
2023-03-05T13:41:06.189Z,2.97
2023-03-05T13:43:33.919Z,0.83
2023-03-05T13:46:01.715Z,0.60
2023-03-05T13:48:29.439Z,0.73
2023-03-05T13:50:59.041Z,2.23
2023-03-05T13:53:29.833Z,0.80
2023-03-05T13:55:59.730Z,1.33
2023-03-05T13:58:47.352Z,0.90
2023-03-05T14:01:25.032Z,0.73
2023-03-05T14:03:53.853Z,1.20
2023-03-05T14:06:23.419Z,0.90
2023-03-05T14:08:53.809Z,0.87
2023-03-05T14:11:23.102Z,1.00
2023-03-05T14:14:01.164Z,0.90
2023-03-05T14:16:33.080Z,1.00
2023-03-05T14:19:02.444Z,0.73
2023-03-05T14:21:45.656Z,1.93
2023-03-05T14:24:20.557Z,0.50
2023-03-05T14:26:53.602Z,1.50
2023-03-05T14:29:25.079Z,1.50
2023-03-05T14:31:55.397Z,1.20
2023-03-05T14:34:27.793Z,1.13
2023-03-05T14:36:58.641Z,1.30
2023-03-05T14:39:46.528Z,0.80
2023-03-05T14:42:28.981Z,1.23
2023-03-05T14:44:58.185Z,0.87
2023-03-05T14:47:26.677Z,1.70
2023-03-05T14:49:54.554Z,0.50
2023-03-05T14:52:24.371Z,0.40
2023-03-05T14:54:55.780Z,0.50
2023-03-05T14:57:26.043Z,0.57
2023-03-05T14:59:55.421Z,0.90
2023-03-05T15:02:25.163Z,0.40
2023-03-05T15:04:53.604Z,0.73
2023-03-05T15:07:24.460Z,1.53
2023-03-05T15:09:53.688Z,0.97
2023-03-05T15:12:24.461Z,0.40
2023-03-05T15:14:52.616Z,1.83
2023-03-05T15:17:23.187Z,0.87
2023-03-05T15:19:51.340Z,0.40
2023-03-05T15:22:19.015Z,0.60
2023-03-05T15:24:46.848Z,1.40
2023-03-05T15:27:15.996Z,0.50
2023-03-05T15:29:43.722Z,2.87
2023-03-05T15:32:12.038Z,0.70
2023-03-05T15:34:39.749Z,0.73
2023-03-05T15:37:07.463Z,1.40
2023-03-05T15:39:35.161Z,0.53
2023-03-05T15:42:04.492Z,1.60
2023-03-05T15:44:35.004Z,1.57
2023-03-05T15:47:02.825Z,1.20
2023-03-05T15:49:30.533Z,0.87
2023-03-05T15:51:58.290Z,1.23
2023-03-05T15:54:26.233Z,0.40
2023-03-05T15:56:54.039Z,0.40
2023-03-05T15:59:21.793Z,0.40
2023-03-05T16:01:52.323Z,0.80
2023-03-05T16:04:20.049Z,0.70
2023-03-05T16:06:50.414Z,0.50
2023-03-05T16:09:20.042Z,1.43
2023-03-05T16:11:51.183Z,1.40
2023-03-05T16:14:22.262Z,0.93
2023-03-05T16:16:53.809Z,1.00
2023-03-05T16:19:22.487Z,0.93
2023-03-05T16:21:50.244Z,1.50
2023-03-05T16:24:17.950Z,0.70
2023-03-05T16:26:45.696Z,1.10
2023-03-05T16:29:13.774Z,1.60
2023-03-05T16:31:43.117Z,1.00
2023-03-05T16:34:14.080Z,1.07
2023-03-05T16:36:46.765Z,0.40
2023-03-05T16:39:14.620Z,1.27
2023-03-05T16:41:42.307Z,1.53
2023-03-05T16:44:10.813Z,1.60
2023-03-05T16:46:41.227Z,0.70
2023-03-05T16:49:09.915Z,0.40
2023-03-05T16:51:38.971Z,0.70
2023-03-05T16:54:09.043Z,0.73
2023-03-05T16:56:37.902Z,0.40
2023-03-05T16:59:05.591Z,0.80
2023-03-05T17:01:33.399Z,0.90
2023-03-05T17:04:01.996Z,0.70
2023-03-05T17:06:31.964Z,0.53
2023-03-05T17:09:02.331Z,1.23
2023-03-05T17:11:30.083Z,0.50
2023-03-05T17:13:57.852Z,1.00
2023-03-05T17:16:25.597Z,0.60
2023-03-05T17:18:53.350Z,1.00
2023-03-05T17:21:21.067Z,1.07
2023-03-05T17:23:48.817Z,0.77
2023-03-05T17:26:19.623Z,0.50
2023-03-05T17:28:47.793Z,1.00
2023-03-05T17:31:15.703Z,0.67
2023-03-05T17:33:44.011Z,0.50
2023-03-05T17:36:16.839Z,0.40
2023-03-05T17:38:44.784Z,0.67
2023-03-05T17:41:13.046Z,0.80
2023-03-05T17:43:42.334Z,1.77
2023-03-05T17:46:12.188Z,0.63
2023-03-05T17:48:40.037Z,1.20
2023-03-05T17:51:08.575Z,0.40
2023-03-05T17:53:38.827Z,0.90
2023-03-05T17:56:08.584Z,2.03
2023-03-05T17:58:36.367Z,0.60
2023-03-05T18:01:06.717Z,2.90
2023-03-05T18:03:34.655Z,1.47
2023-03-05T18:06:02.544Z,1.10
2023-03-05T18:08:30.266Z,2.77
2023-03-05T18:10:58.023Z,2.63
2023-03-05T18:13:25.771Z,0.40
2023-03-05T18:15:53.491Z,0.50
2023-03-05T18:18:22.565Z,0.67
2023-03-05T18:20:50.484Z,1.70
2023-03-05T18:23:18.286Z,0.50
2023-03-05T18:25:46.260Z,1.30
2023-03-05T18:28:15.421Z,1.30
2023-03-05T18:30:45.205Z,1.73
2023-03-05T18:33:18.888Z,3.37
2023-03-05T18:35:51.794Z,2.33
2023-03-05T18:38:20.120Z,1.80
2023-03-05T18:40:47.966Z,1.40
2023-03-05T18:43:17.121Z,1.60
2023-03-05T18:45:46.737Z,2.07
2023-03-05T18:48:14.491Z,2.57
2023-03-05T18:50:42.227Z,2.87
2023-03-05T18:53:12.754Z,3.47
2023-03-05T18:55:42.653Z,2.17
2023-03-05T18:58:10.723Z,1.50
2023-03-05T19:00:38.460Z,1.83
2023-03-05T19:03:06.705Z,2.60
2023-03-05T19:05:35.262Z,0.67
2023-03-05T19:08:03.345Z,0.70
2023-03-05T19:10:32.770Z,1.67
2023-03-05T19:13:15.607Z,0.80
2023-03-05T19:15:43.344Z,1.40
2023-03-05T19:18:11.117Z,1.33
2023-03-05T19:20:38.840Z,1.37
2023-03-05T19:23:06.579Z,1.17
2023-03-05T19:25:36.571Z,1.93
2023-03-05T19:28:04.384Z,1.70
2023-03-05T19:30:32.203Z,1.50
2023-03-05T19:33:00.093Z,1.17
2023-03-05T19:35:27.918Z,1.80
2023-03-05T19:37:55.626Z,2.23
2023-03-05T19:40:23.547Z,1.17
2023-03-05T19:42:52.581Z,3.43
2023-03-05T19:45:20.304Z,2.37
2023-03-05T19:47:48.025Z,1.63
2023-03-05T19:50:16.649Z,1.00
2023-03-05T19:52:44.350Z,2.10
2023-03-05T19:55:12.260Z,1.27
2023-03-05T19:57:39.947Z,1.57
2023-03-05T20:00:10.569Z,0.90
2023-03-05T20:02:38.602Z,2.73
2023-03-05T20:05:07.067Z,0.93
2023-03-05T20:07:34.756Z,0.90
2023-03-05T20:10:02.656Z,1.00
2023-03-05T20:12:30.527Z,1.00
2023-03-05T20:14:58.456Z,1.10
2023-03-05T20:17:27.534Z,0.90
2023-03-05T20:19:58.813Z,1.33
2023-03-05T20:22:26.619Z,1.30
2023-03-05T20:24:54.345Z,1.27
2023-03-05T20:27:22.039Z,1.10
2023-03-05T20:29:49.948Z,0.73
2023-03-05T20:32:17.700Z,0.70
2023-03-05T20:34:46.718Z,0.93
2023-03-05T20:37:14.433Z,0.90
2023-03-05T20:39:42.152Z,0.60
2023-03-05T20:42:09.972Z,1.00
2023-03-05T20:44:37.695Z,0.87
2023-03-05T20:47:22.336Z,1.27
2023-03-05T20:49:55.254Z,0.83
2023-03-05T20:52:23.095Z,0.93
2023-03-05T20:54:50.861Z,1.07
2023-03-05T20:57:18.636Z,0.97
2023-03-05T20:59:46.322Z,0.70
2023-03-05T21:02:14.052Z,0.70
2023-03-05T21:04:41.773Z,0.70
2023-03-05T21:07:10.843Z,0.70
2023-03-05T21:09:38.557Z,1.07
2023-03-05T21:12:08.055Z,1.30
2023-03-05T21:14:37.842Z,0.80
2023-03-05T21:17:05.867Z,2.73
2023-03-05T21:19:33.889Z,1.07
2023-03-05T21:22:01.571Z,2.30
2023-03-05T21:24:39.655Z,0.73
2023-03-05T21:27:07.377Z,0.80
2023-03-05T21:29:35.079Z,0.50
2023-03-05T21:32:03.458Z,0.90
2023-03-05T21:34:31.223Z,0.87
2023-03-05T21:36:58.968Z,1.00
2023-03-05T21:39:26.738Z,1.13
2023-03-05T21:41:56.142Z,0.90
2023-03-05T21:44:23.868Z,0.50
2023-03-05T21:46:51.979Z,0.50
2023-03-05T21:49:19.984Z,0.93
2023-03-05T21:52:00.922Z,1.90
2023-03-05T21:54:29.125Z,0.50
2023-03-05T21:56:58.207Z,1.67
2023-03-05T21:59:27.427Z,1.13
2023-03-05T22:01:55.126Z,0.80
2023-03-05T22:04:22.819Z,1.70
2023-03-05T22:06:50.716Z,0.80
2023-03-05T22:09:18.482Z,1.53
2023-03-05T22:11:46.313Z,1.73
2023-03-05T22:14:16.900Z,0.93
2023-03-05T22:16:45.698Z,1.23
2023-03-05T22:19:14.172Z,0.87
2023-03-05T22:21:41.835Z,0.97
2023-03-05T22:24:10.478Z,2.47
2023-03-05T22:26:40.512Z,1.10
2023-03-05T22:29:11.462Z,0.83
2023-03-05T22:31:40.594Z,0.93
2023-03-05T22:34:08.307Z,1.13
2023-03-05T22:36:36.036Z,1.30
2023-03-05T22:39:04.623Z,0.70
2023-03-05T22:41:32.372Z,0.90
2023-03-05T22:44:00.094Z,1.07
2023-03-05T22:46:28.414Z,0.80
2023-03-05T22:48:57.621Z,0.90
2023-03-05T22:51:25.551Z,0.60
2023-03-05T22:53:53.264Z,1.23
2023-03-05T22:56:21.724Z,0.97
2023-03-05T22:58:49.733Z,0.93
2023-03-05T23:01:19.198Z,1.43
2023-03-05T23:03:47.104Z,0.40
2023-03-05T23:06:16.244Z,0.90
2023-03-05T23:08:43.933Z,0.60
2023-03-05T23:11:12.937Z,0.70
2023-03-05T23:13:41.605Z,1.10
2023-03-05T23:16:09.948Z,0.83
2023-03-05T23:18:38.495Z,0.80
2023-03-05T23:21:06.795Z,1.10
2023-03-05T23:23:35.855Z,0.50
2023-03-05T23:26:03.608Z,1.23
2023-03-05T23:28:31.317Z,0.87
2023-03-05T23:30:59.238Z,1.07
2023-03-05T23:33:26.966Z,0.67
2023-03-05T23:35:56.363Z,0.50
2023-03-05T23:38:24.968Z,0.50
2023-03-05T23:40:55.945Z,0.70
2023-03-05T23:43:25.903Z,2.20
2023-03-05T23:45:55.835Z,1.43
2023-03-05T23:48:24.716Z,1.00
2023-03-05T23:50:52.792Z,0.70
2023-03-05T23:53:23.032Z,0.50
2023-03-05T23:55:51.683Z,0.70
2023-03-05T23:58:21.274Z,0.50
